createdAt,value
2022-08-16T00:01:34.220Z,57.97
2022-08-16T00:04:07.830Z,57.98
2022-08-16T00:06:39.404Z,57.79
2022-08-16T00:09:07.876Z,57.69
2022-08-16T00:11:40.925Z,57.74
2022-08-16T00:14:17.456Z,58.28
2022-08-16T00:17:00.824Z,58.40
2022-08-16T00:19:41.633Z,58.73
2022-08-16T00:22:12.720Z,58.45
2022-08-16T00:24:41.313Z,58.45
2022-08-16T00:27:12.358Z,58.82
2022-08-16T00:29:39.644Z,59.02
2022-08-16T00:32:10.966Z,58.94
2022-08-16T00:34:44.374Z,58.78
2022-08-16T00:37:25.102Z,58.82
2022-08-16T00:40:34.769Z,59.21
2022-08-16T00:43:19.137Z,59.06
2022-08-16T00:46:33.239Z,59.22
2022-08-16T00:49:03.232Z,59.22
2022-08-16T00:51:31.212Z,59.24
2022-08-16T00:53:59.894Z,58.83
2022-08-16T00:56:57.194Z,58.89
2022-08-16T00:59:23.840Z,59.46
2022-08-16T01:01:53.040Z,59.38
2022-08-16T01:04:29.852Z,59.62
2022-08-16T01:07:01.876Z,59.20
2022-08-16T01:09:33.427Z,59.31
2022-08-16T01:12:08.701Z,59.81
2022-08-16T01:14:45.625Z,59.52
2022-08-16T01:17:16.102Z,59.18
2022-08-16T01:19:50.797Z,59.09
2022-08-16T01:22:48.426Z,59.35
2022-08-16T01:25:36.374Z,59.11
2022-08-16T01:28:10.508Z,59.34
2022-08-16T01:30:56.488Z,59.38
2022-08-16T01:33:24.273Z,59.66
2022-08-16T01:36:11.766Z,59.46
2022-08-16T01:38:44.947Z,59.80
2022-08-16T01:41:24.764Z,59.85
2022-08-16T01:43:54.752Z,60.46
2022-08-16T01:46:47.484Z,60.26
2022-08-16T01:49:43.086Z,60.08
2022-08-16T01:52:29.278Z,59.87
2022-08-16T01:54:58.244Z,59.84
2022-08-16T01:57:27.710Z,60.29
2022-08-16T01:59:56.165Z,60.13
2022-08-16T02:02:28.578Z,59.99
2022-08-16T02:05:00.259Z,60.33
2022-08-16T02:07:30.630Z,60.22
2022-08-16T02:09:59.811Z,60.07
2022-08-16T02:12:50.125Z,60.13
2022-08-16T02:15:25.518Z,60.30
2022-08-16T02:17:54.820Z,60.29
2022-08-16T02:20:26.467Z,60.38
2022-08-16T02:23:01.829Z,60.65
2022-08-16T02:25:52.042Z,60.58
2022-08-16T02:28:23.747Z,60.53
2022-08-16T02:30:52.556Z,60.75
2022-08-16T02:33:24.438Z,60.60
2022-08-16T02:36:05.450Z,60.70
2022-08-16T02:38:41.560Z,60.65
2022-08-16T02:41:12.107Z,60.75
2022-08-16T02:43:40.572Z,61.02
2022-08-16T02:46:09.874Z,61.06
2022-08-16T02:48:39.295Z,60.80
2022-08-16T02:51:16.416Z,60.91
2022-08-16T02:53:47.333Z,61.10
2022-08-16T02:56:17.292Z,61.18
2022-08-16T02:58:47.697Z,61.23
2022-08-16T03:01:25.325Z,61.36
2022-08-16T03:04:39.315Z,61.32
2022-08-16T03:06:56.623Z,61.40
2022-08-16T03:09:28.727Z,61.35
2022-08-16T03:11:57.780Z,61.69
2022-08-16T03:14:26.011Z,61.96
2022-08-16T03:16:59.106Z,61.96
2022-08-16T03:19:46.861Z,62.08
2022-08-16T03:22:19.342Z,61.64
2022-08-16T03:24:58.772Z,61.68
2022-08-16T03:27:30.931Z,61.99
2022-08-16T03:30:27.761Z,61.81
2022-08-16T03:32:55.654Z,61.71
2022-08-16T03:35:32.852Z,61.71
2022-08-16T03:38:34.372Z,61.87
2022-08-16T03:40:53.807Z,61.94
2022-08-16T03:43:21.717Z,62.12
2022-08-16T03:45:52.718Z,61.88
2022-08-16T03:48:39.569Z,61.91
2022-08-16T03:51:12.409Z,61.90
2022-08-16T03:53:41.987Z,61.87
2022-08-16T03:56:19.485Z,62.12
2022-08-16T03:58:50.752Z,62.54
2022-08-16T04:01:19.106Z,62.55
2022-08-16T04:03:46.871Z,62.66
2022-08-16T04:06:17.270Z,62.76
2022-08-16T04:08:45.244Z,62.38
2022-08-16T04:11:16.476Z,62.46
2022-08-16T04:16:26.357Z,62.18
2022-08-16T04:18:54.548Z,62.78
2022-08-16T04:21:35.433Z,62.75
2022-08-16T04:24:03.686Z,62.90
2022-08-16T04:26:36.301Z,63.15
2022-08-16T04:29:16.222Z,62.82
2022-08-16T04:31:55.483Z,63.02
2022-08-16T04:34:26.467Z,63.06
2022-08-16T04:36:55.058Z,63.32
2022-08-16T04:39:44.843Z,63.47
2022-08-16T04:42:12.960Z,63.84
2022-08-16T04:44:53.673Z,63.99
2022-08-16T04:47:35.814Z,63.90
2022-08-16T04:50:23.430Z,64.02
2022-08-16T04:52:58.976Z,64.22
2022-08-16T04:55:37.626Z,64.13
2022-08-16T04:58:45.192Z,63.67
2022-08-16T05:00:55.239Z,64.01
2022-08-16T05:03:24.695Z,64.24
2022-08-16T05:05:55.850Z,63.90
2022-08-16T05:08:31.030Z,63.57
2022-08-16T05:11:08.331Z,63.82
2022-08-16T05:13:42.566Z,63.85
2022-08-16T05:16:21.764Z,64.10
2022-08-16T05:18:53.892Z,63.45
2022-08-16T05:21:28.455Z,62.88
2022-08-16T05:24:07.803Z,63.13
2022-08-16T05:26:43.279Z,63.33
2022-08-16T05:29:17.855Z,63.25
2022-08-16T05:31:53.309Z,63.19
2022-08-16T05:34:22.514Z,62.36
2022-08-16T05:36:51.350Z,62.29
2022-08-16T05:39:20.554Z,62.47
2022-08-16T05:41:51.590Z,62.96
2022-08-16T05:44:22.965Z,62.56
2022-08-16T05:47:00.044Z,62.85
2022-08-16T05:49:39.480Z,62.94
2022-08-16T05:52:11.514Z,62.46
2022-08-16T05:54:47.140Z,63.22
2022-08-16T05:57:20.693Z,63.20
2022-08-16T05:59:50.387Z,63.50
2022-08-16T06:02:29.861Z,64.13
2022-08-16T06:05:02.114Z,64.05
2022-08-16T06:07:32.059Z,62.03
2022-08-16T06:10:00.409Z,61.90
2022-08-16T06:12:29.610Z,60.94
2022-08-16T06:15:09.700Z,61.20
2022-08-16T06:17:43.246Z,60.67
2022-08-16T06:20:24.408Z,59.70
2022-08-16T06:23:04.059Z,60.70
2022-08-16T06:25:39.751Z,60.02
2022-08-16T06:28:17.024Z,61.39
2022-08-16T06:31:01.946Z,60.42
2022-08-16T06:33:29.515Z,59.51
2022-08-16T06:36:09.408Z,59.31
2022-08-16T06:38:37.287Z,58.38
2022-08-16T06:41:13.921Z,58.99
2022-08-16T06:43:42.270Z,59.43
2022-08-16T06:46:23.529Z,59.08
2022-08-16T06:48:59.690Z,58.78
2022-08-16T06:51:45.982Z,57.67
2022-08-16T06:54:14.444Z,56.93
2022-08-16T06:56:42.660Z,56.67
2022-08-16T06:59:11.101Z,57.17
2022-08-16T07:01:45.201Z,56.55
2022-08-16T07:04:33.217Z,55.27
2022-08-16T07:07:09.736Z,54.72
2022-08-16T07:09:37.609Z,53.83
2022-08-16T07:12:06.095Z,53.38
2022-08-16T07:14:35.029Z,49.30
2022-08-16T07:17:08.397Z,49.34
2022-08-16T07:20:29.408Z,47.29
2022-08-16T07:22:30.528Z,46.38
2022-08-16T07:25:14.098Z,46.92
2022-08-16T07:27:43.645Z,46.04
2022-08-16T07:30:46.101Z,46.26
2022-08-16T07:33:02.640Z,46.31
2022-08-16T07:35:30.429Z,45.72
2022-08-16T07:37:57.731Z,44.91
2022-08-16T07:40:58.379Z,45.77
2022-08-16T07:43:13.588Z,44.78
2022-08-16T07:45:43.042Z,42.76
2022-08-16T07:48:11.890Z,43.07
2022-08-16T07:50:55.674Z,43.20
2022-08-16T07:53:28.756Z,43.57
2022-08-16T07:55:57.996Z,43.63
2022-08-16T07:58:34.844Z,45.00
2022-08-16T08:01:10.657Z,44.79
2022-08-16T08:03:48.238Z,43.04
2022-08-16T08:06:24.990Z,44.84
2022-08-16T08:08:57.031Z,46.51
2022-08-16T08:11:28.145Z,45.11
2022-08-16T08:14:02.948Z,45.67
2022-08-16T08:16:32.526Z,46.91
2022-08-16T08:19:02.684Z,47.21
2022-08-16T08:22:00.620Z,47.60
2022-08-16T08:24:31.802Z,47.59
2022-08-16T08:27:02.103Z,49.31
2022-08-16T08:29:37.676Z,46.99
2022-08-16T08:32:57.061Z,49.32
2022-08-16T08:35:00.375Z,47.96
2022-08-16T08:37:55.481Z,48.36
2022-08-16T08:40:26.684Z,48.88
2022-08-16T08:43:12.192Z,47.06
2022-08-16T08:45:48.878Z,48.48
2022-08-16T08:48:33.648Z,48.12
2022-08-16T08:51:05.475Z,49.12
2022-08-16T08:53:37.907Z,47.75
2022-08-16T08:56:23.217Z,47.58
2022-08-16T08:58:59.054Z,46.66
2022-08-16T09:01:36.498Z,48.66
2022-08-16T09:04:14.813Z,47.66
2022-08-16T09:06:45.558Z,48.36
2022-08-16T09:09:16.573Z,48.95
2022-08-16T09:11:52.730Z,46.05
2022-08-16T09:14:23.905Z,46.98
2022-08-16T09:17:03.314Z,47.90
2022-08-16T09:19:34.648Z,47.61
2022-08-16T09:22:03.303Z,48.04
2022-08-16T09:24:51.946Z,48.34
2022-08-16T09:27:25.404Z,47.83
2022-08-16T09:29:59.913Z,48.82
2022-08-16T09:32:30.522Z,47.19
2022-08-16T09:34:59.785Z,46.95
2022-08-16T09:37:34.856Z,46.85
2022-08-16T09:40:31.924Z,48.05
2022-08-16T09:42:59.034Z,47.87
2022-08-16T09:45:28.979Z,45.00
2022-08-16T09:47:58.467Z,47.52
2022-08-16T09:50:37.076Z,48.90
2022-08-16T09:53:16.987Z,47.92
2022-08-16T09:55:49.280Z,47.98
2022-08-16T09:58:37.652Z,47.04
2022-08-16T10:01:11.197Z,47.27
2022-08-16T10:04:01.732Z,47.34
2022-08-16T10:06:21.800Z,46.40
2022-08-16T10:09:04.256Z,47.77
2022-08-16T10:11:52.959Z,46.73
2022-08-16T10:14:24.795Z,47.17
2022-08-16T10:17:06.332Z,48.44
2022-08-16T10:19:34.474Z,48.04
2022-08-16T10:22:04.927Z,46.97
2022-08-16T10:24:33.899Z,46.93
2022-08-16T10:27:22.261Z,46.82
2022-08-16T10:30:00.626Z,45.77
2022-08-16T10:32:32.169Z,46.29
2022-08-16T10:35:00.316Z,46.21
2022-08-16T10:37:36.370Z,43.87
2022-08-16T10:40:29.588Z,46.53
2022-08-16T10:43:02.074Z,45.34
2022-08-16T10:45:37.002Z,45.34
2022-08-16T10:48:27.695Z,44.89
2022-08-16T10:51:00.283Z,45.08
2022-08-16T10:53:33.229Z,44.93
2022-08-16T10:56:52.393Z,43.04
2022-08-16T10:59:38.131Z,44.17
2022-08-16T11:02:21.711Z,43.70
2022-08-16T11:11:01.570Z,43.21
2022-08-16T11:15:57.790Z,43.91
2022-08-16T11:18:54.880Z,43.68
2022-08-16T11:21:28.680Z,43.21
2022-08-16T11:23:58.339Z,43.39
2022-08-16T11:26:27.216Z,42.75
2022-08-16T11:29:13.141Z,44.00
2022-08-16T11:31:45.409Z,43.37
2022-08-16T11:34:19.621Z,44.56
2022-08-16T11:36:59.420Z,44.91
2022-08-16T11:39:30.754Z,43.56
2022-08-16T11:41:59.210Z,43.38
2022-08-16T11:44:52.251Z,43.35
2022-08-16T11:47:14.354Z,43.50
2022-08-16T11:49:41.726Z,44.28
2022-08-16T11:52:09.060Z,43.33
2022-08-16T11:54:36.812Z,42.66
2022-08-16T11:57:09.326Z,42.63
2022-08-16T11:59:39.977Z,41.32
2022-08-16T12:02:32.041Z,41.12
2022-08-16T12:04:56.921Z,41.28
2022-08-16T12:07:24.919Z,46.42
2022-08-16T12:09:53.995Z,45.10
2022-08-16T12:12:23.716Z,46.34
2022-08-16T12:14:59.456Z,49.19
2022-08-16T12:17:31.871Z,55.71
2022-08-16T12:20:00.872Z,59.70
2022-08-16T12:22:29.155Z,58.87
2022-08-16T12:24:56.561Z,56.29
2022-08-16T12:27:26.687Z,58.27
2022-08-16T12:29:58.436Z,57.06
2022-08-16T12:32:37.780Z,58.86
2022-08-16T12:35:15.695Z,58.58
2022-08-16T12:37:46.253Z,58.88
2022-08-16T12:40:24.769Z,58.68
2022-08-16T12:43:00.698Z,58.91
2022-08-16T12:45:36.288Z,60.54
2022-08-16T12:48:40.167Z,56.89
2022-08-16T12:51:19.571Z,59.12
2022-08-16T12:53:52.204Z,61.29
2022-08-16T12:56:25.403Z,61.75
2022-08-16T12:58:55.960Z,62.00
2022-08-16T13:01:30.538Z,62.68
2022-08-16T13:04:12.292Z,63.68
2022-08-16T13:06:52.295Z,64.54
2022-08-16T13:09:23.614Z,62.57
2022-08-16T13:12:03.385Z,64.45
2022-08-16T13:14:43.892Z,65.32
2022-08-16T13:17:18.677Z,67.14
2022-08-16T13:20:07.122Z,69.38
2022-08-16T13:23:01.365Z,68.36
2022-08-16T13:25:35.357Z,66.56
2022-08-16T13:28:04.717Z,67.83
2022-08-16T13:30:42.556Z,66.96
2022-08-16T13:33:17.574Z,69.03
2022-08-16T13:35:55.900Z,62.31
2022-08-16T13:38:25.789Z,67.16
2022-08-16T13:40:56.785Z,69.64
2022-08-16T13:43:32.482Z,71.00
2022-08-16T13:46:04.419Z,69.02
2022-08-16T13:48:43.019Z,70.84
2022-08-16T13:51:18.758Z,69.28
2022-08-16T13:53:58.359Z,69.71
2022-08-16T13:56:34.246Z,70.25
2022-08-16T13:59:21.172Z,72.28
2022-08-16T14:01:59.592Z,72.75
2022-08-16T14:04:35.319Z,70.91
2022-08-16T14:07:09.589Z,71.43
2022-08-16T14:09:38.746Z,71.85
2022-08-16T14:12:22.536Z,72.73
2022-08-16T14:14:54.496Z,74.46
2022-08-16T14:17:24.752Z,74.17
2022-08-16T14:19:52.422Z,74.43
2022-08-16T14:22:35.997Z,74.93
2022-08-16T14:25:16.368Z,76.11
2022-08-16T14:27:44.230Z,76.33
2022-08-16T14:30:16.355Z,77.16
2022-08-16T14:32:47.745Z,76.19
2022-08-16T14:35:36.677Z,78.20
2022-08-16T14:38:18.054Z,76.63
2022-08-16T14:40:51.028Z,77.07
2022-08-16T14:43:20.581Z,77.98
2022-08-16T14:45:50.607Z,76.13
2022-08-16T14:48:25.129Z,79.11
2022-08-16T14:50:53.894Z,76.89
2022-08-16T14:53:21.273Z,72.70
2022-08-16T14:55:49.770Z,73.76
2022-08-16T14:58:18.905Z,71.65
2022-08-16T15:00:50.261Z,70.04
2022-08-16T15:03:21.857Z,71.82
2022-08-16T15:05:54.071Z,72.96
2022-08-16T15:08:22.009Z,72.70
2022-08-16T15:11:07.662Z,71.47
2022-08-16T15:13:35.412Z,71.33
2022-08-16T15:16:03.824Z,72.19
2022-08-16T15:18:33.606Z,73.72
2022-08-16T15:21:02.594Z,72.17
2022-08-16T15:23:34.099Z,72.92
2022-08-16T15:26:03.490Z,72.64
2022-08-16T15:28:33.105Z,73.13
2022-08-16T15:31:07.275Z,71.10
2022-08-16T15:33:46.287Z,72.66
2022-08-16T15:36:21.319Z,73.02
2022-08-16T15:39:02.105Z,73.72
2022-08-16T15:41:44.827Z,74.23
2022-08-16T15:44:23.149Z,73.36
2022-08-16T15:46:56.469Z,73.79
2022-08-16T15:49:37.565Z,74.10
2022-08-16T15:52:29.218Z,71.53
2022-08-16T15:55:00.393Z,71.21
2022-08-16T15:57:41.304Z,70.82
2022-08-16T16:00:14.564Z,68.52
2022-08-16T16:02:43.677Z,70.76
2022-08-16T16:05:11.180Z,71.34
2022-08-16T16:07:55.751Z,69.82
2022-08-16T16:10:28.368Z,71.80
2022-08-16T16:13:03.781Z,72.90
2022-08-16T16:15:37.310Z,74.23
2022-08-16T16:18:09.306Z,72.63
2022-08-16T16:20:38.943Z,73.69
2022-08-16T16:23:11.093Z,73.21
2022-08-16T16:25:43.955Z,73.06
2022-08-16T16:29:06.645Z,74.10
2022-08-16T16:31:06.358Z,71.79
2022-08-16T16:33:37.012Z,73.14
2022-08-16T16:36:06.999Z,72.42
2022-08-16T16:38:34.835Z,73.16
2022-08-16T16:41:09.851Z,73.10
2022-08-16T16:43:41.003Z,73.66
2022-08-16T16:46:39.286Z,74.96
2022-08-16T16:48:58.107Z,75.01
2022-08-16T16:51:28.152Z,76.40
2022-08-16T16:53:57.156Z,74.67
2022-08-16T16:56:33.236Z,73.38
2022-08-16T16:59:10.722Z,73.34
2022-08-16T17:01:59.482Z,72.73
2022-08-16T17:04:31.609Z,73.82
2022-08-16T17:07:01.312Z,73.38
2022-08-16T17:09:29.540Z,73.07
2022-08-16T17:11:58.456Z,73.76
2022-08-16T17:14:33.254Z,74.72
2022-08-16T17:17:06.188Z,73.16
2022-08-16T17:19:34.532Z,74.77
2022-08-16T17:25:02.127Z,74.31
2022-08-16T17:27:32.950Z,75.01
2022-08-16T17:30:15.685Z,74.73
2022-08-16T17:32:54.546Z,76.12
2022-08-16T17:35:33.730Z,75.98
2022-08-16T17:38:07.675Z,73.17
2022-08-16T17:39:28.306Z,74.97
2022-08-16T17:40:55.341Z,76.13
2022-08-16T17:43:43.854Z,75.26
2022-08-16T17:46:41.341Z,75.89
2022-08-16T17:49:14.107Z,75.25
2022-08-16T17:51:42.220Z,75.43
2022-08-16T17:54:18.381Z,77.26
2022-08-16T17:57:01.104Z,75.25
2022-08-16T17:59:30.225Z,76.98
2022-08-16T18:01:58.844Z,77.61
2022-08-16T18:04:48.585Z,78.72
2022-08-16T18:07:14.633Z,77.85
2022-08-16T18:09:42.218Z,78.12
2022-08-16T18:12:44.786Z,76.83
2022-08-16T18:15:09.668Z,76.12
2022-08-16T18:17:36.875Z,76.74
2022-08-16T18:20:29.017Z,76.70
2022-08-16T18:23:15.191Z,76.11
2022-08-16T18:25:52.270Z,76.03
2022-08-16T18:28:20.249Z,76.52
2022-08-16T18:31:00.817Z,75.90
2022-08-16T18:33:29.642Z,75.90
2022-08-16T18:35:58.476Z,76.40
2022-08-16T18:38:26.058Z,76.34
2022-08-16T18:40:53.566Z,76.16
2022-08-16T18:44:22.772Z,76.18
2022-08-16T18:46:10.954Z,75.84
2022-08-16T18:48:38.161Z,77.11
2022-08-16T18:51:10.331Z,76.18
2022-08-16T18:53:40.405Z,75.78
2022-08-16T18:56:07.701Z,75.70
2022-08-16T18:58:35.311Z,75.78
2022-08-16T19:01:02.560Z,75.62
2022-08-16T19:03:32.961Z,75.15
2022-08-16T19:06:11.413Z,74.33
2022-08-16T19:08:43.684Z,76.16
2022-08-16T19:11:15.163Z,75.27
2022-08-16T19:13:44.506Z,76.11
2022-08-16T19:16:12.632Z,75.69
2022-08-16T19:18:40.462Z,75.86
2022-08-16T19:21:14.462Z,75.85
2022-08-16T19:23:44.217Z,74.97
2022-08-16T19:26:24.645Z,75.03
2022-08-16T19:28:58.355Z,74.61
2022-08-16T19:31:31.798Z,74.37
2022-08-16T19:34:00.229Z,74.28
2022-08-16T19:36:36.885Z,74.04
2022-08-16T19:39:12.292Z,74.25
2022-08-16T19:41:45.020Z,73.91
2022-08-16T19:44:13.461Z,73.99
2022-08-16T19:46:45.743Z,73.68
2022-08-16T19:49:16.249Z,74.58
2022-08-16T19:51:45.901Z,74.02
2022-08-16T19:54:13.173Z,74.06
2022-08-16T19:56:40.481Z,73.79
2022-08-16T19:59:40.236Z,73.68
2022-08-16T20:01:55.298Z,74.06
2022-08-16T20:04:24.570Z,73.52
2022-08-16T20:06:53.393Z,73.71
2022-08-16T20:09:22.061Z,73.44
2022-08-16T20:11:52.432Z,73.47
2022-08-16T20:14:25.378Z,73.17
2022-08-16T20:16:55.790Z,73.33
2022-08-16T20:19:23.400Z,74.30
2022-08-16T20:21:50.819Z,73.81
2022-08-16T20:24:35.131Z,73.87
2022-08-16T20:27:06.474Z,73.63
2022-08-16T20:29:34.198Z,74.61
2022-08-16T20:32:02.387Z,72.97
2022-08-16T20:34:29.654Z,73.32
2022-08-16T20:37:00.007Z,72.92
2022-08-16T20:39:28.007Z,73.56
2022-08-16T20:44:40.572Z,73.15
2022-08-16T20:47:08.854Z,73.19
2022-08-16T20:49:37.401Z,73.46
2022-08-16T20:52:14.518Z,72.90
2022-08-16T20:54:42.939Z,73.45
2022-08-16T20:57:11.373Z,73.05
2022-08-16T20:59:39.956Z,73.31
2022-08-16T21:02:14.047Z,73.30
2022-08-16T21:04:41.671Z,73.02
2022-08-16T21:07:10.519Z,73.21
2022-08-16T21:09:38.283Z,73.15
2022-08-16T21:12:13.684Z,73.33
2022-08-16T21:14:45.579Z,73.32
2022-08-16T21:17:16.047Z,73.13
2022-08-16T21:19:45.146Z,72.87
2022-08-16T21:22:17.715Z,73.09
2022-08-16T21:24:46.677Z,73.40
2022-08-16T21:27:17.529Z,73.62
2022-08-16T21:29:46.079Z,73.16
2022-08-16T21:32:35.211Z,73.14
2022-08-16T21:35:15.575Z,72.78
2022-08-16T21:37:43.045Z,72.65
2022-08-16T21:40:34.036Z,72.50
2022-08-16T21:43:14.693Z,72.49
2022-08-16T21:45:44.525Z,72.64
2022-08-16T21:48:12.065Z,72.88
2022-08-16T21:50:41.783Z,72.22
2022-08-16T21:53:19.662Z,72.64
2022-08-16T21:55:52.741Z,73.03
2022-08-16T21:58:20.582Z,72.85
2022-08-16T22:00:48.808Z,72.77
2022-08-16T22:03:16.868Z,72.64
2022-08-16T22:06:12.408Z,72.67
2022-08-16T22:08:39.417Z,72.91
2022-08-16T22:11:16.143Z,73.10
2022-08-16T22:13:43.414Z,72.81
2022-08-16T22:16:19.265Z,73.07
2022-08-16T22:18:52.436Z,73.00
2022-08-16T22:21:20.508Z,73.05
2022-08-16T22:23:56.833Z,72.79
2022-08-16T22:26:32.433Z,72.74
2022-08-16T22:29:08.692Z,73.07
2022-08-16T22:31:38.735Z,73.08
2022-08-16T22:34:07.885Z,72.85
2022-08-16T22:36:35.991Z,73.07
2022-08-16T22:39:08.566Z,72.74
2022-08-16T22:41:38.219Z,72.69
2022-08-16T22:44:07.055Z,72.85
2022-08-16T22:46:36.682Z,72.63
2022-08-16T22:49:06.417Z,72.80
2022-08-16T22:51:35.099Z,72.73
2022-08-16T22:54:33.923Z,72.88
2022-08-16T22:56:52.114Z,72.50
2022-08-16T22:59:19.352Z,72.54
2022-08-16T23:01:47.099Z,72.22
2022-08-16T23:04:14.309Z,72.24
2022-08-16T23:06:41.598Z,72.44
2022-08-16T23:09:09.273Z,72.39
2022-08-16T23:11:36.522Z,71.65
2022-08-16T23:14:03.894Z,72.49
2022-08-16T23:16:34.680Z,72.15
2022-08-16T23:19:09.477Z,72.10
2022-08-16T23:21:40.743Z,71.95
2022-08-16T23:24:09.494Z,72.17
2022-08-16T23:26:46.883Z,72.71
2022-08-16T23:29:25.289Z,72.39
2022-08-16T23:32:11.824Z,72.50
2022-08-16T23:34:39.447Z,71.79
2022-08-16T23:37:06.902Z,72.19
2022-08-16T23:39:35.966Z,72.17
2022-08-16T23:42:14.587Z,72.61
2022-08-16T23:44:58.704Z,72.47
2022-08-16T23:47:26.428Z,72.48
2022-08-16T23:50:01.253Z,72.28
2022-08-16T23:52:53.209Z,72.06
2022-08-16T23:55:17.977Z,72.38
2022-08-16T23:57:46.355Z,72.32
